sensor_id;sensor_type;location;lat;lon;timestamp;temperature;humidity
26954;DHT22;14508;50.924;11.600;2023-08-07T00:00:00;14.40;99.90
26954;DHT22;14508;50.924;11.600;2023-08-07T00:02:31;14.40;99.90
26954;DHT22;14508;50.924;11.600;2023-08-07T00:04:59;14.40;99.90
26954;DHT22;14508;50.924;11.600;2023-08-07T00:07:27;14.40;99.90
26954;DHT22;14508;50.924;11.600;2023-08-07T00:09:56;14.40;99.90
26954;DHT22;14508;50.924;11.600;2023-08-07T00:12:24;14.40;99.90
26954;DHT22;14508;50.924;11.600;2023-08-07T00:14:52;14.40;99.90
26954;DHT22;14508;50.924;11.600;2023-08-07T00:17:20;14.40;99.90
26954;DHT22;14508;50.924;11.600;2023-08-07T00:19:48;14.40;99.90
26954;DHT22;14508;50.924;11.600;2023-08-07T00:22:16;14.40;99.90
26954;DHT22;14508;50.924;11.600;2023-08-07T00:24:43;14.40;99.90
26954;DHT22;14508;50.924;11.600;2023-08-07T00:27:13;14.40;99.90
26954;DHT22;14508;50.924;11.600;2023-08-07T00:29:41;14.50;99.90
26954;DHT22;14508;50.924;11.600;2023-08-07T00:32:09;14.50;99.90
26954;DHT22;14508;50.924;11.600;2023-08-07T00:34:39;14.50;99.90
26954;DHT22;14508;50.924;11.600;2023-08-07T00:37:07;14.50;99.90
26954;DHT22;14508;50.924;11.600;2023-08-07T00:39:35;14.50;99.90
26954;DHT22;14508;50.924;11.600;2023-08-07T00:42:03;14.50;99.90
26954;DHT22;14508;50.924;11.600;2023-08-07T00:44:32;14.50;99.90
26954;DHT22;14508;50.924;11.600;2023-08-07T00:47:00;14.50;99.90
26954;DHT22;14508;50.924;11.600;2023-08-07T00:49:28;14.50;99.90
26954;DHT22;14508;50.924;11.600;2023-08-07T00:51:56;14.50;99.90
26954;DHT22;14508;50.924;11.600;2023-08-07T00:54:25;14.50;99.90
26954;DHT22;14508;50.924;11.600;2023-08-07T00:56:53;14.50;99.90
26954;DHT22;14508;50.924;11.600;2023-08-07T00:59:22;14.50;99.90
26954;DHT22;14508;50.924;11.600;2023-08-07T01:01:52;14.50;99.90
26954;DHT22;14508;50.924;11.600;2023-08-07T01:04:20;14.50;99.90
26954;DHT22;14508;50.924;11.600;2023-08-07T01:06:48;14.50;99.90
26954;DHT22;14508;50.924;11.600;2023-08-07T01:09:16;14.50;99.90
26954;DHT22;14508;50.924;11.600;2023-08-07T01:11:47;14.50;99.90
26954;DHT22;14508;50.924;11.600;2023-08-07T01:14:23;14.60;99.90
26954;DHT22;14508;50.924;11.600;2023-08-07T01:16:59;14.60;99.90
26954;DHT22;14508;50.924;11.600;2023-08-07T01:19:29;14.60;99.90
26954;DHT22;14508;50.924;11.600;2023-08-07T01:22:08;14.60;99.90
26954;DHT22;14508;50.924;11.600;2023-08-07T01:24:39;14.60;99.90
26954;DHT22;14508;50.924;11.600;2023-08-07T01:27:23;14.60;99.90
26954;DHT22;14508;50.924;11.600;2023-08-07T01:30:12;14.60;99.90
26954;DHT22;14508;50.924;11.600;2023-08-07T01:32:47;14.60;99.90
26954;DHT22;14508;50.924;11.600;2023-08-07T01:35:19;14.60;99.90
26954;DHT22;14508;50.924;11.600;2023-08-07T01:37:50;14.60;99.90
26954;DHT22;14508;50.924;11.600;2023-08-07T01:40:20;14.60;99.90
26954;DHT22;14508;50.924;11.600;2023-08-07T01:42:48;14.60;99.90
26954;DHT22;14508;50.924;11.600;2023-08-07T01:45:23;14.60;99.90
26954;DHT22;14508;50.924;11.600;2023-08-07T01:47:51;14.60;99.90
26954;DHT22;14508;50.924;11.600;2023-08-07T01:50:20;14.60;99.90
26954;DHT22;14508;50.924;11.600;2023-08-07T01:52:49;14.60;99.90
26954;DHT22;14508;50.924;11.600;2023-08-07T01:55:18;14.60;99.90
26954;DHT22;14508;50.924;11.600;2023-08-07T01:57:51;14.60;99.90
26954;DHT22;14508;50.924;11.600;2023-08-07T02:00:20;14.60;99.90
26954;DHT22;14508;50.924;11.600;2023-08-07T02:02:48;14.60;99.90
26954;DHT22;14508;50.924;11.600;2023-08-07T02:05:16;14.60;99.90
26954;DHT22;14508;50.924;11.600;2023-08-07T02:07:44;14.60;99.90
26954;DHT22;14508;50.924;11.600;2023-08-07T02:10:13;14.70;99.90
26954;DHT22;14508;50.924;11.600;2023-08-07T02:12:41;14.60;99.90
26954;DHT22;14508;50.924;11.600;2023-08-07T02:15:10;14.60;99.90
26954;DHT22;14508;50.924;11.600;2023-08-07T02:17:37;14.60;99.90
26954;DHT22;14508;50.924;11.600;2023-08-07T02:20:09;14.60;99.90
26954;DHT22;14508;50.924;11.600;2023-08-07T02:22:37;14.60;99.90
26954;DHT22;14508;50.924;11.600;2023-08-07T02:25:06;14.60;99.90
26954;DHT22;14508;50.924;11.600;2023-08-07T02:27:35;14.60;99.90
26954;DHT22;14508;50.924;11.600;2023-08-07T02:30:06;14.60;99.90
26954;DHT22;14508;50.924;11.600;2023-08-07T02:32:34;14.60;99.90
26954;DHT22;14508;50.924;11.600;2023-08-07T02:35:02;14.60;99.90
26954;DHT22;14508;50.924;11.600;2023-08-07T02:37:30;14.60;99.90
26954;DHT22;14508;50.924;11.600;2023-08-07T02:39:58;14.60;99.90
26954;DHT22;14508;50.924;11.600;2023-08-07T02:42:26;14.60;99.90
26954;DHT22;14508;50.924;11.600;2023-08-07T02:44:55;14.60;99.90
26954;DHT22;14508;50.924;11.600;2023-08-07T02:47:23;14.60;99.90
26954;DHT22;14508;50.924;11.600;2023-08-07T02:49:51;14.60;99.90
26954;DHT22;14508;50.924;11.600;2023-08-07T02:52:19;14.60;99.90
26954;DHT22;14508;50.924;11.600;2023-08-07T02:54:47;14.60;99.90
26954;DHT22;14508;50.924;11.600;2023-08-07T02:57:15;14.50;99.90
26954;DHT22;14508;50.924;11.600;2023-08-07T02:59:43;14.50;99.90
26954;DHT22;14508;50.924;11.600;2023-08-07T03:02:12;14.50;99.90
26954;DHT22;14508;50.924;11.600;2023-08-07T03:04:40;14.40;99.90
26954;DHT22;14508;50.924;11.600;2023-08-07T03:07:08;14.40;99.90
26954;DHT22;14508;50.924;11.600;2023-08-07T03:09:36;14.40;99.90
26954;DHT22;14508;50.924;11.600;2023-08-07T03:12:05;14.40;99.90
26954;DHT22;14508;50.924;11.600;2023-08-07T03:14:33;14.40;99.90
26954;DHT22;14508;50.924;11.600;2023-08-07T03:17:01;14.40;99.90
26954;DHT22;14508;50.924;11.600;2023-08-07T03:19:30;14.40;99.90
26954;DHT22;14508;50.924;11.600;2023-08-07T03:21:58;14.40;99.90
26954;DHT22;14508;50.924;11.600;2023-08-07T03:24:26;14.40;99.90
26954;DHT22;14508;50.924;11.600;2023-08-07T03:26:54;14.40;99.90
26954;DHT22;14508;50.924;11.600;2023-08-07T03:29:23;14.40;99.90
26954;DHT22;14508;50.924;11.600;2023-08-07T03:31:51;14.30;99.90
26954;DHT22;14508;50.924;11.600;2023-08-07T03:34:20;14.30;99.90
26954;DHT22;14508;50.924;11.600;2023-08-07T03:36:49;14.30;99.90
26954;DHT22;14508;50.924;11.600;2023-08-07T03:39:17;14.30;99.90
26954;DHT22;14508;50.924;11.600;2023-08-07T03:41:45;14.30;99.90
26954;DHT22;14508;50.924;11.600;2023-08-07T03:44:13;14.30;99.90
26954;DHT22;14508;50.924;11.600;2023-08-07T03:46:41;14.30;99.90
26954;DHT22;14508;50.924;11.600;2023-08-07T03:49:09;14.30;99.90
26954;DHT22;14508;50.924;11.600;2023-08-07T03:51:37;14.30;99.90
26954;DHT22;14508;50.924;11.600;2023-08-07T03:54:06;14.20;99.90
26954;DHT22;14508;50.924;11.600;2023-08-07T03:56:34;14.30;99.90
26954;DHT22;14508;50.924;11.600;2023-08-07T03:59:05;14.30;99.90
26954;DHT22;14508;50.924;11.600;2023-08-07T04:01:34;14.20;99.90
26954;DHT22;14508;50.924;11.600;2023-08-07T04:04:02;14.20;99.90
26954;DHT22;14508;50.924;11.600;2023-08-07T04:06:30;14.20;99.90
26954;DHT22;14508;50.924;11.600;2023-08-07T04:08:58;14.20;99.90
26954;DHT22;14508;50.924;11.600;2023-08-07T04:11:27;14.20;99.90
26954;DHT22;14508;50.924;11.600;2023-08-07T04:13:56;14.10;99.90
26954;DHT22;14508;50.924;11.600;2023-08-07T04:16:24;14.20;99.90
26954;DHT22;14508;50.924;11.600;2023-08-07T04:18:52;14.10;99.90
26954;DHT22;14508;50.924;11.600;2023-08-07T04:21:20;14.20;99.90
26954;DHT22;14508;50.924;11.600;2023-08-07T04:23:48;14.20;99.90
26954;DHT22;14508;50.924;11.600;2023-08-07T04:26:16;14.20;99.90
26954;DHT22;14508;50.924;11.600;2023-08-07T04:28:46;14.20;99.90
26954;DHT22;14508;50.924;11.600;2023-08-07T04:31:14;14.20;99.90
26954;DHT22;14508;50.924;11.600;2023-08-07T04:33:41;14.20;99.90
26954;DHT22;14508;50.924;11.600;2023-08-07T04:36:10;14.20;99.90
26954;DHT22;14508;50.924;11.600;2023-08-07T04:38:37;14.30;99.90
26954;DHT22;14508;50.924;11.600;2023-08-07T04:41:05;14.30;99.90
26954;DHT22;14508;50.924;11.600;2023-08-07T04:43:33;14.30;99.90
26954;DHT22;14508;50.924;11.600;2023-08-07T04:46:02;14.40;99.90
26954;DHT22;14508;50.924;11.600;2023-08-07T04:48:30;14.40;99.90
26954;DHT22;14508;50.924;11.600;2023-08-07T04:50:59;14.40;99.90
26954;DHT22;14508;50.924;11.600;2023-08-07T04:53:29;14.40;99.90
26954;DHT22;14508;50.924;11.600;2023-08-07T04:55:57;14.50;99.90
26954;DHT22;14508;50.924;11.600;2023-08-07T04:58:24;14.50;99.90
26954;DHT22;14508;50.924;11.600;2023-08-07T05:00:55;14.50;99.90
26954;DHT22;14508;50.924;11.600;2023-08-07T05:03:25;14.50;99.90
26954;DHT22;14508;50.924;11.600;2023-08-07T05:05:58;14.60;99.90
26954;DHT22;14508;50.924;11.600;2023-08-07T05:08:27;14.60;99.90
26954;DHT22;14508;50.924;11.600;2023-08-07T05:10:55;14.60;99.90
26954;DHT22;14508;50.924;11.600;2023-08-07T05:13:22;14.60;99.90
26954;DHT22;14508;50.924;11.600;2023-08-07T05:15:50;14.60;99.90
26954;DHT22;14508;50.924;11.600;2023-08-07T05:18:18;14.60;99.90
26954;DHT22;14508;50.924;11.600;2023-08-07T05:20:48;14.60;99.90
26954;DHT22;14508;50.924;11.600;2023-08-07T05:23:16;14.60;99.90
26954;DHT22;14508;50.924;11.600;2023-08-07T05:25:45;14.60;99.90
26954;DHT22;14508;50.924;11.600;2023-08-07T05:28:15;14.70;99.90
26954;DHT22;14508;50.924;11.600;2023-08-07T05:30:43;14.70;99.90
26954;DHT22;14508;50.924;11.600;2023-08-07T05:33:11;14.70;99.90
26954;DHT22;14508;50.924;11.600;2023-08-07T05:35:41;14.80;99.90
26954;DHT22;14508;50.924;11.600;2023-08-07T05:38:10;14.80;99.90
26954;DHT22;14508;50.924;11.600;2023-08-07T05:40:38;14.80;99.90
26954;DHT22;14508;50.924;11.600;2023-08-07T05:43:07;14.90;99.90
26954;DHT22;14508;50.924;11.600;2023-08-07T05:45:35;14.90;99.90
26954;DHT22;14508;50.924;11.600;2023-08-07T05:48:04;14.90;99.90
26954;DHT22;14508;50.924;11.600;2023-08-07T05:50:32;14.90;99.90
26954;DHT22;14508;50.924;11.600;2023-08-07T05:53:00;14.90;99.90
26954;DHT22;14508;50.924;11.600;2023-08-07T05:55:30;15.00;99.90
26954;DHT22;14508;50.924;11.600;2023-08-07T05:57:58;15.00;99.90
26954;DHT22;14508;50.924;11.600;2023-08-07T06:00:26;15.10;99.90
26954;DHT22;14508;50.924;11.600;2023-08-07T06:02:55;15.10;99.90
26954;DHT22;14508;50.924;11.600;2023-08-07T06:05:24;15.10;99.90
26954;DHT22;14508;50.924;11.600;2023-08-07T06:07:51;15.20;99.90
26954;DHT22;14508;50.924;11.600;2023-08-07T06:10:19;15.20;99.90
26954;DHT22;14508;50.924;11.600;2023-08-07T06:12:49;15.20;99.90
26954;DHT22;14508;50.924;11.600;2023-08-07T06:15:17;15.30;99.90
26954;DHT22;14508;50.924;11.600;2023-08-07T06:17:45;15.30;99.90
26954;DHT22;14508;50.924;11.600;2023-08-07T06:20:13;15.40;99.90
26954;DHT22;14508;50.924;11.600;2023-08-07T06:22:42;15.40;99.90
26954;DHT22;14508;50.924;11.600;2023-08-07T06:25:11;15.40;99.90
26954;DHT22;14508;50.924;11.600;2023-08-07T06:27:38;15.50;99.90
26954;DHT22;14508;50.924;11.600;2023-08-07T06:30:09;15.50;99.90
26954;DHT22;14508;50.924;11.600;2023-08-07T06:32:37;15.50;99.90
26954;DHT22;14508;50.924;11.600;2023-08-07T06:35:06;15.40;99.90
26954;DHT22;14508;50.924;11.600;2023-08-07T06:37:34;15.50;99.90
26954;DHT22;14508;50.924;11.600;2023-08-07T06:40:02;15.50;99.90
26954;DHT22;14508;50.924;11.600;2023-08-07T06:42:30;15.50;99.90
26954;DHT22;14508;50.924;11.600;2023-08-07T06:44:58;15.50;99.90
26954;DHT22;14508;50.924;11.600;2023-08-07T06:47:27;15.60;99.90
26954;DHT22;14508;50.924;11.600;2023-08-07T06:49:55;15.60;99.90
26954;DHT22;14508;50.924;11.600;2023-08-07T06:52:23;15.70;99.90
26954;DHT22;14508;50.924;11.600;2023-08-07T06:54:51;15.70;99.90
26954;DHT22;14508;50.924;11.600;2023-08-07T06:57:20;15.80;99.90
26954;DHT22;14508;50.924;11.600;2023-08-07T06:59:47;15.90;99.90
26954;DHT22;14508;50.924;11.600;2023-08-07T07:02:15;15.90;99.90
26954;DHT22;14508;50.924;11.600;2023-08-07T07:04:45;16.00;99.90
26954;DHT22;14508;50.924;11.600;2023-08-07T07:07:12;16.00;99.90
26954;DHT22;14508;50.924;11.600;2023-08-07T07:09:40;16.00;99.90
26954;DHT22;14508;50.924;11.600;2023-08-07T07:12:08;16.00;99.90
26954;DHT22;14508;50.924;11.600;2023-08-07T07:14:36;16.20;99.90
26954;DHT22;14508;50.924;11.600;2023-08-07T07:17:04;16.30;99.90
26954;DHT22;14508;50.924;11.600;2023-08-07T07:19:32;16.40;99.90
26954;DHT22;14508;50.924;11.600;2023-08-07T07:22:02;16.60;99.90
26954;DHT22;14508;50.924;11.600;2023-08-07T07:24:30;16.70;99.90
26954;DHT22;14508;50.924;11.600;2023-08-07T07:26:58;16.70;99.90
26954;DHT22;14508;50.924;11.600;2023-08-07T07:29:26;16.70;99.90
26954;DHT22;14508;50.924;11.600;2023-08-07T07:31:53;16.80;99.90
26954;DHT22;14508;50.924;11.600;2023-08-07T07:34:22;16.80;99.90
26954;DHT22;14508;50.924;11.600;2023-08-07T07:36:50;16.90;99.90
26954;DHT22;14508;50.924;11.600;2023-08-07T07:39:21;16.90;99.90
26954;DHT22;14508;50.924;11.600;2023-08-07T07:41:49;16.80;99.90
26954;DHT22;14508;50.924;11.600;2023-08-07T07:44:18;16.90;99.90
26954;DHT22;14508;50.924;11.600;2023-08-07T07:46:45;17.00;99.90
26954;DHT22;14508;50.924;11.600;2023-08-07T07:49:13;17.00;99.90
26954;DHT22;14508;50.924;11.600;2023-08-07T07:51:41;17.00;99.90
26954;DHT22;14508;50.924;11.600;2023-08-07T07:54:11;17.00;99.90
26954;DHT22;14508;50.924;11.600;2023-08-07T07:56:43;17.00;99.90
26954;DHT22;14508;50.924;11.600;2023-08-07T07:59:12;17.10;99.90
26954;DHT22;14508;50.924;11.600;2023-08-07T08:01:40;17.10;99.90
26954;DHT22;14508;50.924;11.600;2023-08-07T08:04:08;17.10;99.90
26954;DHT22;14508;50.924;11.600;2023-08-07T08:06:37;17.20;99.90
26954;DHT22;14508;50.924;11.600;2023-08-07T08:09:05;17.10;99.90
26954;DHT22;14508;50.924;11.600;2023-08-07T08:11:36;17.10;99.90
26954;DHT22;14508;50.924;11.600;2023-08-07T08:14:06;17.10;99.90
26954;DHT22;14508;50.924;11.600;2023-08-07T08:16:34;17.10;99.90
26954;DHT22;14508;50.924;11.600;2023-08-07T08:19:02;17.10;99.90
26954;DHT22;14508;50.924;11.600;2023-08-07T08:21:30;17.30;99.90
26954;DHT22;14508;50.924;11.600;2023-08-07T08:23:59;17.40;99.90
26954;DHT22;14508;50.924;11.600;2023-08-07T08:26:26;17.50;99.90
26954;DHT22;14508;50.924;11.600;2023-08-07T08:28:54;17.60;99.90
26954;DHT22;14508;50.924;11.600;2023-08-07T08:31:24;17.70;99.90
26954;DHT22;14508;50.924;11.600;2023-08-07T08:33:52;17.80;99.90
26954;DHT22;14508;50.924;11.600;2023-08-07T08:36:20;17.80;99.90
26954;DHT22;14508;50.924;11.600;2023-08-07T08:38:48;17.80;99.90
26954;DHT22;14508;50.924;11.600;2023-08-07T08:41:19;17.70;99.90
26954;DHT22;14508;50.924;11.600;2023-08-07T08:43:49;17.70;99.90
26954;DHT22;14508;50.924;11.600;2023-08-07T08:46:20;17.70;99.90
26954;DHT22;14508;50.924;11.600;2023-08-07T08:48:52;17.80;99.90
26954;DHT22;14508;50.924;11.600;2023-08-07T08:51:24;17.80;99.90
26954;DHT22;14508;50.924;11.600;2023-08-07T08:53:52;18.00;99.90
26954;DHT22;14508;50.924;11.600;2023-08-07T08:56:23;17.90;99.90
26954;DHT22;14508;50.924;11.600;2023-08-07T08:58:52;18.00;99.90
26954;DHT22;14508;50.924;11.600;2023-08-07T09:01:20;18.20;99.90
26954;DHT22;14508;50.924;11.600;2023-08-07T09:03:55;18.40;99.90
26954;DHT22;14508;50.924;11.600;2023-08-07T09:06:24;18.40;99.90
26954;DHT22;14508;50.924;11.600;2023-08-07T09:08:53;18.30;99.90
26954;DHT22;14508;50.924;11.600;2023-08-07T09:11:22;18.20;99.90
26954;DHT22;14508;50.924;11.600;2023-08-07T09:13:50;18.20;99.90
26954;DHT22;14508;50.924;11.600;2023-08-07T09:16:23;18.20;99.90
26954;DHT22;14508;50.924;11.600;2023-08-07T09:18:52;18.30;99.90
26954;DHT22;14508;50.924;11.600;2023-08-07T09:21:23;18.30;99.90
26954;DHT22;14508;50.924;11.600;2023-08-07T09:23:51;18.40;99.90
26954;DHT22;14508;50.924;11.600;2023-08-07T09:26:22;18.40;99.90
26954;DHT22;14508;50.924;11.600;2023-08-07T09:28:51;18.30;99.90
26954;DHT22;14508;50.924;11.600;2023-08-07T09:31:20;18.30;99.90
26954;DHT22;14508;50.924;11.600;2023-08-07T09:33:48;18.30;99.90
26954;DHT22;14508;50.924;11.600;2023-08-07T09:36:16;18.20;99.90
26954;DHT22;14508;50.924;11.600;2023-08-07T09:38:50;18.10;99.90
26954;DHT22;14508;50.924;11.600;2023-08-07T09:41:18;18.00;99.90
26954;DHT22;14508;50.924;11.600;2023-08-07T09:43:47;17.90;99.90
26954;DHT22;14508;50.924;11.600;2023-08-07T09:46:17;17.80;99.90
26954;DHT22;14508;50.924;11.600;2023-08-07T09:48:46;17.80;99.90
26954;DHT22;14508;50.924;11.600;2023-08-07T09:51:14;17.90;99.90
26954;DHT22;14508;50.924;11.600;2023-08-07T09:53:42;18.10;99.90
26954;DHT22;14508;50.924;11.600;2023-08-07T09:56:12;18.00;99.90
26954;DHT22;14508;50.924;11.600;2023-08-07T09:58:47;18.10;99.90
26954;DHT22;14508;50.924;11.600;2023-08-07T10:01:16;18.20;99.90
26954;DHT22;14508;50.924;11.600;2023-08-07T10:03:45;18.30;99.90
26954;DHT22;14508;50.924;11.600;2023-08-07T10:06:14;18.30;99.90
26954;DHT22;14508;50.924;11.600;2023-08-07T10:08:43;18.40;99.90
26954;DHT22;14508;50.924;11.600;2023-08-07T10:11:13;18.60;99.90
26954;DHT22;14508;50.924;11.600;2023-08-07T10:13:45;18.80;99.90
26954;DHT22;14508;50.924;11.600;2023-08-07T10:16:13;18.80;99.90
26954;DHT22;14508;50.924;11.600;2023-08-07T10:18:42;18.90;99.90
26954;DHT22;14508;50.924;11.600;2023-08-07T10:21:10;18.80;99.70
26954;DHT22;14508;50.924;11.600;2023-08-07T10:23:38;18.70;99.90
26954;DHT22;14508;50.924;11.600;2023-08-07T10:26:08;18.70;99.90
26954;DHT22;14508;50.924;11.600;2023-08-07T10:28:40;18.60;99.90
26954;DHT22;14508;50.924;11.600;2023-08-07T10:31:10;18.40;99.90
26954;DHT22;14508;50.924;11.600;2023-08-07T10:33:39;18.10;99.90
26954;DHT22;14508;50.924;11.600;2023-08-07T10:36:10;18.00;99.90
26954;DHT22;14508;50.924;11.600;2023-08-07T10:38:39;17.90;99.90
26954;DHT22;14508;50.924;11.600;2023-08-07T10:41:09;17.70;99.90
26954;DHT22;14508;50.924;11.600;2023-08-07T10:43:40;17.60;99.90
26954;DHT22;14508;50.924;11.600;2023-08-07T10:46:10;17.60;99.90
26954;DHT22;14508;50.924;11.600;2023-08-07T10:48:39;17.60;99.90
26954;DHT22;14508;50.924;11.600;2023-08-07T10:51:08;17.70;99.90
26954;DHT22;14508;50.924;11.600;2023-08-07T10:53:38;17.80;99.90
26954;DHT22;14508;50.924;11.600;2023-08-07T10:56:09;17.90;99.90
26954;DHT22;14508;50.924;11.600;2023-08-07T10:58:40;18.00;99.90
26954;DHT22;14508;50.924;11.600;2023-08-07T11:01:22;18.00;99.90
26954;DHT22;14508;50.924;11.600;2023-08-07T11:03:51;17.80;99.90
26954;DHT22;14508;50.924;11.600;2023-08-07T11:06:23;17.60;99.90
26954;DHT22;14508;50.924;11.600;2023-08-07T11:08:53;17.40;99.90
26954;DHT22;14508;50.924;11.600;2023-08-07T11:11:21;17.30;99.90
26954;DHT22;14508;50.924;11.600;2023-08-07T11:13:50;17.30;99.90
26954;DHT22;14508;50.924;11.600;2023-08-07T11:16:19;17.40;99.90
26954;DHT22;14508;50.924;11.600;2023-08-07T11:18:48;17.40;99.90
26954;DHT22;14508;50.924;11.600;2023-08-07T11:21:17;17.50;99.90
26954;DHT22;14508;50.924;11.600;2023-08-07T11:23:46;17.60;99.90
26954;DHT22;14508;50.924;11.600;2023-08-07T11:26:14;17.90;99.90
26954;DHT22;14508;50.924;11.600;2023-08-07T11:28:42;18.00;99.90
26954;DHT22;14508;50.924;11.600;2023-08-07T11:31:11;18.20;99.90
26954;DHT22;14508;50.924;11.600;2023-08-07T11:33:40;18.30;99.90
26954;DHT22;14508;50.924;11.600;2023-08-07T11:36:12;18.60;99.90
26954;DHT22;14508;50.924;11.600;2023-08-07T11:38:41;18.80;99.90
26954;DHT22;14508;50.924;11.600;2023-08-07T11:41:11;19.00;99.90
26954;DHT22;14508;50.924;11.600;2023-08-07T11:43:40;19.20;99.90
26954;DHT22;14508;50.924;11.600;2023-08-07T11:46:11;19.30;98.00
26954;DHT22;14508;50.924;11.600;2023-08-07T11:48:41;19.40;96.70
26954;DHT22;14508;50.924;11.600;2023-08-07T11:51:09;19.50;96.80
26954;DHT22;14508;50.924;11.600;2023-08-07T11:53:39;19.50;97.60
26954;DHT22;14508;50.924;11.600;2023-08-07T11:56:08;19.50;95.50
26954;DHT22;14508;50.924;11.600;2023-08-07T11:58:38;19.60;95.40
26954;DHT22;14508;50.924;11.600;2023-08-07T12:01:11;19.70;95.70
26954;DHT22;14508;50.924;11.600;2023-08-07T12:03:42;19.80;93.90
26954;DHT22;14508;50.924;11.600;2023-08-07T12:06:11;19.90;92.40
26954;DHT22;14508;50.924;11.600;2023-08-07T12:08:40;20.00;91.50
26954;DHT22;14508;50.924;11.600;2023-08-07T12:11:09;20.10;91.80
26954;DHT22;14508;50.924;11.600;2023-08-07T12:13:39;20.20;89.00
26954;DHT22;14508;50.924;11.600;2023-08-07T12:16:08;20.40;85.60
26954;DHT22;14508;50.924;11.600;2023-08-07T12:18:37;20.40;85.50
26954;DHT22;14508;50.924;11.600;2023-08-07T12:21:07;20.30;85.40
26954;DHT22;14508;50.924;11.600;2023-08-07T12:23:36;20.20;86.60
26954;DHT22;14508;50.924;11.600;2023-08-07T12:26:04;20.20;86.60
26954;DHT22;14508;50.924;11.600;2023-08-07T12:28:34;20.10;86.20
26954;DHT22;14508;50.924;11.600;2023-08-07T12:31:03;20.00;85.00
26954;DHT22;14508;50.924;11.600;2023-08-07T12:33:31;19.80;86.10
26954;DHT22;14508;50.924;11.600;2023-08-07T12:36:01;19.70;87.60
26954;DHT22;14508;50.924;11.600;2023-08-07T12:38:29;19.40;91.60
26954;DHT22;14508;50.924;11.600;2023-08-07T12:40:58;19.10;94.20
26954;DHT22;14508;50.924;11.600;2023-08-07T12:43:26;18.80;95.50
26954;DHT22;14508;50.924;11.600;2023-08-07T12:45:54;18.60;97.00
26954;DHT22;14508;50.924;11.600;2023-08-07T12:48:42;18.40;99.90
26954;DHT22;14508;50.924;11.600;2023-08-07T12:51:11;18.20;99.90
26954;DHT22;14508;50.924;11.600;2023-08-07T12:53:39;18.20;99.90
26954;DHT22;14508;50.924;11.600;2023-08-07T12:56:07;18.30;99.90
26954;DHT22;14508;50.924;11.600;2023-08-07T12:58:35;18.60;99.90
26954;DHT22;14508;50.924;11.600;2023-08-07T13:01:05;18.80;99.90
26954;DHT22;14508;50.924;11.600;2023-08-07T13:03:33;19.10;99.90
26954;DHT22;14508;50.924;11.600;2023-08-07T13:06:01;19.30;99.90
26954;DHT22;14508;50.924;11.600;2023-08-07T13:08:33;19.40;99.90
26954;DHT22;14508;50.924;11.600;2023-08-07T13:11:02;19.50;99.90
26954;DHT22;14508;50.924;11.600;2023-08-07T13:13:29;19.70;99.90
26954;DHT22;14508;50.924;11.600;2023-08-07T13:15:58;19.80;99.90
26954;DHT22;14508;50.924;11.600;2023-08-07T13:18:26;19.90;94.90
26954;DHT22;14508;50.924;11.600;2023-08-07T13:20:53;19.70;93.00
26954;DHT22;14508;50.924;11.600;2023-08-07T13:23:23;19.50;93.60
26954;DHT22;14508;50.924;11.600;2023-08-07T13:25:52;19.40;94.60
26954;DHT22;14508;50.924;11.600;2023-08-07T13:28:20;19.20;97.70
26954;DHT22;14508;50.924;11.600;2023-08-07T13:30:49;19.20;99.90
26954;DHT22;14508;50.924;11.600;2023-08-07T13:33:18;19.20;99.90
26954;DHT22;14508;50.924;11.600;2023-08-07T13:35:46;19.10;99.90
26954;DHT22;14508;50.924;11.600;2023-08-07T13:38:15;18.90;99.90
26954;DHT22;14508;50.924;11.600;2023-08-07T13:40:45;18.70;99.90
26954;DHT22;14508;50.924;11.600;2023-08-07T13:43:14;18.60;99.90
26954;DHT22;14508;50.924;11.600;2023-08-07T13:45:42;18.70;99.90
26954;DHT22;14508;50.924;11.600;2023-08-07T13:48:10;18.90;99.90
26954;DHT22;14508;50.924;11.600;2023-08-07T13:50:38;19.10;99.90
26954;DHT22;14508;50.924;11.600;2023-08-07T13:53:07;19.30;99.90
26954;DHT22;14508;50.924;11.600;2023-08-07T13:55:42;19.50;99.90
26954;DHT22;14508;50.924;11.600;2023-08-07T13:58:10;19.60;99.90
26954;DHT22;14508;50.924;11.600;2023-08-07T14:00:40;19.70;99.90
26954;DHT22;14508;50.924;11.600;2023-08-07T14:03:08;19.80;99.90
26954;DHT22;14508;50.924;11.600;2023-08-07T14:05:39;19.90;99.90
26954;DHT22;14508;50.924;11.600;2023-08-07T14:08:07;19.90;99.60
26954;DHT22;14508;50.924;11.600;2023-08-07T14:10:37;19.90;98.70
26954;DHT22;14508;50.924;11.600;2023-08-07T14:13:08;19.90;97.70
26954;DHT22;14508;50.924;11.600;2023-08-07T14:15:36;19.70;96.60
26954;DHT22;14508;50.924;11.600;2023-08-07T14:18:05;19.60;96.40
26954;DHT22;14508;50.924;11.600;2023-08-07T14:20:35;19.70;97.40
26954;DHT22;14508;50.924;11.600;2023-08-07T14:23:17;19.90;97.70
26954;DHT22;14508;50.924;11.600;2023-08-07T14:26:05;20.00;97.60
26954;DHT22;14508;50.924;11.600;2023-08-07T14:28:33;20.20;95.30
26954;DHT22;14508;50.924;11.600;2023-08-07T14:31:06;20.10;91.80
26954;DHT22;14508;50.924;11.600;2023-08-07T14:33:36;19.90;91.20
26954;DHT22;14508;50.924;11.600;2023-08-07T14:36:05;19.80;91.30
26954;DHT22;14508;50.924;11.600;2023-08-07T14:38:33;19.60;92.00
26954;DHT22;14508;50.924;11.600;2023-08-07T14:41:01;19.50;92.00
26954;DHT22;14508;50.924;11.600;2023-08-07T14:43:29;19.40;92.30
26954;DHT22;14508;50.924;11.600;2023-08-07T14:45:58;19.40;93.10
26954;DHT22;14508;50.924;11.600;2023-08-07T14:48:26;19.40;92.70
26954;DHT22;14508;50.924;11.600;2023-08-07T14:50:55;19.50;93.30
26954;DHT22;14508;50.924;11.600;2023-08-07T14:53:24;19.50;93.50
26954;DHT22;14508;50.924;11.600;2023-08-07T14:55:54;19.20;94.70
26954;DHT22;14508;50.924;11.600;2023-08-07T14:58:22;19.00;96.10
26954;DHT22;14508;50.924;11.600;2023-08-07T15:00:53;19.00;96.00
26954;DHT22;14508;50.924;11.600;2023-08-07T15:03:21;18.90;94.10
26954;DHT22;14508;50.924;11.600;2023-08-07T15:05:49;18.90;93.30
26954;DHT22;14508;50.924;11.600;2023-08-07T15:08:19;18.60;93.30
26954;DHT22;14508;50.924;11.600;2023-08-07T15:10:46;18.10;99.90
26954;DHT22;14508;50.924;11.600;2023-08-07T15:13:14;17.50;99.90
26954;DHT22;14508;50.924;11.600;2023-08-07T15:15:42;16.70;99.90
26954;DHT22;14508;50.924;11.600;2023-08-07T15:18:11;16.20;99.90
26954;DHT22;14508;50.924;11.600;2023-08-07T15:20:39;15.90;99.90
26954;DHT22;14508;50.924;11.600;2023-08-07T15:23:07;15.50;99.90
26954;DHT22;14508;50.924;11.600;2023-08-07T15:25:38;15.40;99.90